Time;durP1;ratioP1;P1;durP2;ratioP2;P2;SDS_P1;SDS_P2;PMS_P1;PMS_P2;Temp;Humidity;BMP_temperature;BMP_pressure;BME280_temperature;BME280_humidity;BME280_pressure;Samples;Min_cycle;Max_cycle;Signal;HPM_P1;HPM_P2
2023/07/18 00:01:59;;;;;;;32.20;30.40;;;21.80;99.70;;;;;;5031970;28;20033;-75
2023/07/18 00:04:27;;;;;;;31.40;29.40;;;21.80;99.80;;;;;;5016227;28;20044;-75
2023/07/18 00:06:54;;;;;;;32.20;30.15;;;21.80;99.90;;;;;;5032423;28;20044;-74
2023/07/18 00:09:21;;;;;;;34.92;32.78;;;21.70;99.90;;;;;;5032741;28;20025;-75
2023/07/18 00:11:47;;;;;;;33.60;31.70;;;21.70;99.90;;;;;;5032166;28;20081;-75
2023/07/18 00:14:15;;;;;;;35.30;33.08;;;21.60;99.90;;;;;;5033662;28;20494;-74
2023/07/18 00:16:41;;;;;;;33.70;31.42;;;21.50;99.90;;;;;;5031768;28;20498;-75
2023/07/18 00:19:12;;;;;;;29.83;27.63;;;21.50;99.90;;;;;;5033661;28;20048;-74
2023/07/18 00:21:39;;;;;;;29.70;28.02;;;21.50;99.90;;;;;;5032263;28;20033;-74
2023/07/18 00:24:05;;;;;;;31.42;29.42;;;21.50;99.90;;;;;;5031817;28;20040;-75
2023/07/18 00:26:31;;;;;;;31.17;29.38;;;21.40;99.90;;;;;;5032299;28;20517;-75
2023/07/18 00:28:58;;;;;;;33.45;31.15;;;21.30;99.90;;;;;;5032136;28;20037;-75
2023/07/18 00:31:24;;;;;;;30.52;28.45;;;21.20;99.90;;;;;;5031643;28;20036;-75
2023/07/18 00:33:50;;;;;;;29.00;27.20;;;21.20;99.90;;;;;;5033366;28;20037;-75
2023/07/18 00:36:16;;;;;;;28.98;26.77;;;21.30;99.90;;;;;;5031707;28;20029;-74
2023/07/18 00:38:42;;;;;;;29.95;28.13;;;21.30;99.90;;;;;;5033289;28;20029;-75
2023/07/18 00:41:11;;;;;;;27.95;26.15;;;21.30;99.90;;;;;;5032688;28;20064;-74
2023/07/18 00:43:37;;;;;;;27.60;25.83;;;21.20;99.90;;;;;;5032174;28;20042;-75
2023/07/18 00:46:03;;;;;;;27.75;26.02;;;21.10;99.90;;;;;;5032523;28;20088;-74
2023/07/18 00:48:32;;;;;;;25.70;24.00;;;20.90;99.90;;;;;;5032997;28;20029;-75
2023/07/18 00:50:59;;;;;;;22.23;20.70;;;20.90;99.90;;;;;;5031568;28;20450;-75
2023/07/18 00:53:25;;;;;;;23.05;21.65;;;21.00;99.90;;;;;;5032040;28;20030;-75
2023/07/18 00:55:53;;;;;;;24.92;23.33;;;20.90;99.90;;;;;;5031147;28;20037;-74
2023/07/18 00:58:19;;;;;;;21.08;19.50;;;20.90;99.90;;;;;;5031612;28;20048;-74
2023/07/18 01:00:45;;;;;;;21.40;19.90;;;20.80;99.90;;;;;;5031066;28;20041;-75
2023/07/18 01:03:12;;;;;;;22.40;20.95;;;20.80;99.90;;;;;;5032796;28;20033;-75
2023/07/18 01:05:39;;;;;;;20.73;19.33;;;20.70;99.90;;;;;;5032530;28;20041;-75
2023/07/18 01:08:05;;;;;;;20.50;19.02;;;20.70;99.90;;;;;;5031642;28;20041;-75
2023/07/18 01:10:31;;;;;;;20.73;19.13;;;20.70;99.90;;;;;;5031023;28;20030;-75
2023/07/18 01:13:00;;;;;;;19.23;17.73;;;20.60;99.90;;;;;;5031582;28;20041;-75
2023/07/18 01:15:31;;;;;;;19.23;17.95;;;20.60;99.90;;;;;;5031887;28;20029;-74
2023/07/18 01:17:57;;;;;;;21.15;19.88;;;20.60;99.90;;;;;;5031556;28;20033;-75
2023/07/18 01:20:26;;;;;;;19.95;18.65;;;20.60;99.90;;;;;;5030975;28;20391;-75
2023/07/18 01:22:57;;;;;;;23.88;22.35;;;20.50;99.90;;;;;;5031265;28;20025;-75
2023/07/18 01:25:24;;;;;;;23.50;21.88;;;20.50;99.90;;;;;;5031190;28;20037;-75
2023/07/18 01:27:51;;;;;;;20.52;19.23;;;20.50;99.90;;;;;;5032319;28;20045;-75
2023/07/18 01:30:20;;;;;;;20.85;19.33;;;20.60;99.90;;;;;;5031753;28;20038;-75
2023/07/18 01:32:49;;;;;;;23.67;22.17;;;20.60;99.90;;;;;;5031236;28;20451;-75
2023/07/18 01:35:17;;;;;;;22.15;20.85;;;20.50;99.90;;;;;;5030948;28;20037;-75
2023/07/18 01:37:46;;;;;;;22.48;21.05;;;20.40;99.90;;;;;;5030755;28;20026;-75
2023/07/18 01:40:19;;;;;;;21.52;20.02;;;20.30;99.90;;;;;;5030719;28;20048;-75
2023/07/18 01:42:51;;;;;;;23.90;22.20;;;20.50;99.90;;;;;;5031215;28;20029;-73
2023/07/18 01:45:21;;;;;;;22.88;21.27;;;20.30;99.90;;;;;;5030273;28;20352;-75
2023/07/18 01:47:48;;;;;;;20.77;19.35;;;20.10;99.90;;;;;;5014388;28;20037;-75
2023/07/18 01:50:14;;;;;;;19.23;17.90;;;19.90;99.90;;;;;;5031671;28;20402;-75
2023/07/18 01:52:40;;;;;;;17.17;15.88;;;20.00;99.90;;;;;;5030833;28;20032;-74
2023/07/18 01:55:07;;;;;;;19.20;17.85;;;20.00;99.90;;;;;;5032209;28;20033;-75
2023/07/18 01:57:36;;;;;;;30.48;28.67;;;20.00;99.90;;;;;;5031755;28;20026;-75
2023/07/18 02:00:03;;;;;;;22.52;21.05;;;20.00;99.90;;;;;;5030436;28;20095;-75
2023/07/18 02:02:29;;;;;;;16.58;15.25;;;20.00;99.90;;;;;;4989920;28;20040;-75
2023/07/18 02:04:58;;;;;;;16.77;15.57;;;19.90;99.90;;;;;;5005589;28;20030;-75
2023/07/18 02:07:25;;;;;;;17.17;16.05;;;19.80;99.90;;;;;;5009051;28;20041;-75
2023/07/18 02:09:51;;;;;;;18.77;17.27;;;19.70;99.90;;;;;;4989886;28;20038;-74
2023/07/18 02:12:19;;;;;;;16.40;15.20;;;19.50;99.90;;;;;;5008211;28;20493;-75
2023/07/18 02:14:45;;;;;;;20.20;18.85;;;19.30;99.90;;;;;;5010791;28;20117;-75
2023/07/18 02:17:11;;;;;;;15.32;14.23;;;19.30;99.90;;;;;;5009912;28;20030;-75
2023/07/18 02:19:37;;;;;;;16.65;15.45;;;19.30;99.90;;;;;;5010398;28;20038;-75
2023/07/18 02:22:04;;;;;;;19.50;18.30;;;19.40;99.90;;;;;;5010136;28;20042;-74
2023/07/18 02:24:30;;;;;;;13.77;12.73;;;19.40;99.90;;;;;;5010639;28;20030;-75
2023/07/18 02:26:57;;;;;;;15.07;14.00;;;19.30;99.90;;;;;;5010086;28;20049;-74
2023/07/18 02:29:24;;;;;;;16.30;15.05;;;19.30;99.90;;;;;;5009332;28;20049;-75
2023/07/18 02:31:50;;;;;;;13.95;13.00;;;19.10;99.90;;;;;;5009652;28;20045;-75
2023/07/18 02:34:16;;;;;;;13.75;12.75;;;19.10;99.90;;;;;;5010508;28;20038;-74
2023/07/18 02:36:42;;;;;;;13.02;12.13;;;19.10;99.90;;;;;;5009197;28;20025;-75
2023/07/18 02:39:10;;;;;;;11.55;10.60;;;19.00;99.90;;;;;;4994472;28;20053;-75
2023/07/18 02:41:39;;;;;;;13.02;12.02;;;19.10;99.90;;;;;;5011509;28;20034;-75
2023/07/18 02:44:05;;;;;;;12.75;11.82;;;19.20;99.90;;;;;;5010993;28;20034;-75
2023/07/18 02:46:31;;;;;;;12.70;11.77;;;19.10;99.90;;;;;;5011172;28;20038;-75
2023/07/18 02:48:57;;;;;;;13.23;12.13;;;19.00;99.90;;;;;;5014230;28;20041;-75
2023/07/18 02:51:23;;;;;;;13.43;12.30;;;19.00;99.90;;;;;;5013895;28;20372;-75
2023/07/18 02:53:51;;;;;;;12.20;11.05;;;18.80;99.90;;;;;;5015360;28;20025;-75
2023/07/18 02:56:17;;;;;;;12.60;11.60;;;18.50;99.90;;;;;;5014067;28;20038;-75
2023/07/18 02:58:44;;;;;;;12.80;11.70;;;18.40;99.90;;;;;;5014438;28;20031;-75
2023/07/18 03:01:11;;;;;;;12.82;11.73;;;18.30;99.90;;;;;;5013330;28;20483;-75
2023/07/18 03:03:40;;;;;;;11.23;10.10;;;18.30;99.90;;;;;;5015595;28;20406;-74
2023/07/18 03:06:09;;;;;;;11.27;10.27;;;18.20;99.90;;;;;;5014661;28;20034;-74
2023/07/18 03:08:36;;;;;;;11.93;10.93;;;18.20;99.90;;;;;;5015371;28;20030;-75
2023/07/18 03:11:03;;;;;;;11.35;10.45;;;18.10;99.90;;;;;;5013663;28;20069;-75
2023/07/18 03:13:30;;;;;;;12.70;11.80;;;18.10;99.90;;;;;;5013969;28;20026;-74
2023/07/18 03:15:56;;;;;;;13.20;11.88;;;18.00;99.90;;;;;;5013021;28;20037;-74
2023/07/18 03:18:22;;;;;;;13.18;12.02;;;17.90;99.90;;;;;;5013921;28;20026;-74
2023/07/18 03:20:49;;;;;;;14.27;13.27;;;17.90;99.90;;;;;;5014400;28;20045;-74
2023/07/18 03:23:15;;;;;;;13.30;10.82;;;17.80;99.90;;;;;;5013736;28;20034;-74
2023/07/18 03:25:41;;;;;;;12.10;10.80;;;17.70;99.90;;;;;;5013433;28;20033;-75
2023/07/18 03:28:08;;;;;;;12.30;10.90;;;17.70;99.90;;;;;;5014858;28;20026;-73
2023/07/18 03:30:34;;;;;;;12.15;11.13;;;17.80;99.90;;;;;;5012725;28;20038;-74
2023/07/18 03:33:00;;;;;;;9.82;8.98;;;17.90;99.90;;;;;;5014768;28;20029;-75
2023/07/18 03:35:26;;;;;;;10.15;9.25;;;17.80;99.90;;;;;;5013208;28;20045;-73
2023/07/18 03:37:52;;;;;;;9.85;8.95;;;17.80;99.90;;;;;;5014888;28;20373;-74
2023/07/18 03:40:18;;;;;;;9.40;8.52;;;17.90;99.90;;;;;;5013157;28;20034;-74
2023/07/18 03:42:45;;;;;;;10.52;9.52;;;18.00;99.90;;;;;;5014923;28;20045;-74
2023/07/18 03:45:13;;;;;;;11.85;10.48;;;18.10;99.90;;;;;;5012591;28;20026;-74
2023/07/18 03:47:43;;;;;;;11.98;10.88;;;18.10;99.90;;;;;;5013296;28;20028;-74
2023/07/18 03:50:13;;;;;;;8.93;7.70;;;18.10;99.90;;;;;;5013047;28;20046;-75
2023/07/18 03:52:39;;;;;;;11.77;10.67;;;17.90;99.90;;;;;;4993738;28;20034;-74
2023/07/18 03:55:06;;;;;;;12.05;11.15;;;17.90;99.90;;;;;;4993564;28;20467;-75
2023/07/18 03:57:33;;;;;;;16.23;14.82;;;17.90;99.90;;;;;;5012932;28;20045;-74
2023/07/18 03:59:59;;;;;;;17.23;15.95;;;17.90;99.90;;;;;;5012953;28;20112;-74
2023/07/18 04:02:26;;;;;;;15.57;14.50;;;18.00;99.90;;;;;;5011899;28;20041;-74
2023/07/18 04:04:52;;;;;;;16.40;15.30;;;18.10;99.90;;;;;;5012855;28;20037;-74
2023/07/18 04:07:20;;;;;;;15.75;14.75;;;18.10;99.90;;;;;;5012987;28;20482;-74
2023/07/18 04:09:46;;;;;;;14.73;13.63;;;18.00;99.90;;;;;;5013010;28;20036;-74
2023/07/18 04:12:15;;;;;;;12.50;11.48;;;17.90;99.90;;;;;;5012541;28;20029;-74
2023/07/18 04:14:42;;;;;;;12.43;11.43;;;18.00;99.90;;;;;;5014295;28;20030;-75
2023/07/18 04:17:08;;;;;;;14.68;13.35;;;18.00;99.90;;;;;;5011771;28;20065;-74
2023/07/18 04:19:35;;;;;;;12.43;11.27;;;17.90;99.90;;;;;;5012795;28;20052;-75
2023/07/18 04:22:01;;;;;;;12.90;11.85;;;18.10;99.90;;;;;;5013829;28;20117;-75
2023/07/18 04:24:29;;;;;;;12.38;11.43;;;18.20;99.90;;;;;;5013865;28;20034;-74
2023/07/18 04:26:55;;;;;;;12.55;11.45;;;18.10;99.90;;;;;;5012375;28;20026;-75
2023/07/18 04:29:21;;;;;;;11.35;10.55;;;17.90;99.90;;;;;;5012471;28;20034;-74
2023/07/18 04:31:47;;;;;;;11.70;10.70;;;17.90;99.90;;;;;;5012658;28;20056;-75
2023/07/18 04:34:15;;;;;;;10.82;9.90;;;18.10;99.90;;;;;;5013768;28;20045;-75
2023/07/18 04:36:42;;;;;;;10.68;9.88;;;18.20;99.90;;;;;;5012007;28;20026;-74
2023/07/18 04:39:09;;;;;;;11.73;10.63;;;18.30;99.90;;;;;;5013471;28;20475;-74
2023/07/18 04:41:35;;;;;;;10.35;9.48;;;18.40;99.90;;;;;;5013190;28;20042;-75
2023/07/18 04:44:02;;;;;;;10.05;9.32;;;18.30;99.90;;;;;;5012370;28;20037;-75
2023/07/18 04:46:28;;;;;;;11.63;10.45;;;18.10;99.90;;;;;;5012160;28;20442;-75
2023/07/18 04:48:54;;;;;;;10.90;9.88;;;18.00;99.90;;;;;;5013264;28;20041;-74
2023/07/18 04:51:20;;;;;;;12.50;11.50;;;18.10;99.90;;;;;;5011831;28;20049;-75
2023/07/18 04:53:47;;;;;;;10.32;9.18;;;18.10;99.90;;;;;;5013624;28;20065;-75
2023/07/18 04:56:13;;;;;;;11.05;8.65;;;18.20;99.90;;;;;;5012963;28;20036;-74
2023/07/18 04:58:39;;;;;;;11.77;8.27;;;18.20;99.90;;;;;;5013225;28;20026;-75
2023/07/18 05:01:06;;;;;;;9.85;8.90;;;18.10;99.90;;;;;;4994725;28;20042;-75
2023/07/18 05:03:32;;;;;;;12.63;8.70;;;17.90;99.90;;;;;;5013033;28;20021;-74
2023/07/18 05:05:58;;;;;;;9.07;8.30;;;17.90;99.90;;;;;;5012697;28;20474;-75
2023/07/18 05:08:25;;;;;;;12.57;8.38;;;17.90;99.90;;;;;;5013155;28;20052;-75
2023/07/18 05:10:51;;;;;;;9.82;8.90;;;17.80;99.90;;;;;;5011099;28;20022;-74
2023/07/18 05:13:17;;;;;;;10.38;9.52;;;17.90;99.90;;;;;;5013060;28;20040;-74
2023/07/18 05:15:43;;;;;;;11.10;9.52;;;17.90;99.90;;;;;;5010901;28;20038;-74
2023/07/18 05:18:09;;;;;;;11.73;9.40;;;17.90;99.90;;;;;;5011858;28;20037;-74
2023/07/18 05:20:35;;;;;;;9.60;8.13;;;18.00;99.90;;;;;;5011508;28;20038;-75
2023/07/18 05:23:01;;;;;;;8.90;8.05;;;18.00;99.90;;;;;;5012718;28;20033;-74
2023/07/18 05:25:28;;;;;;;10.10;9.10;;;17.90;99.90;;;;;;5011342;28;20033;-75
2023/07/18 05:27:56;;;;;;;17.05;9.82;;;17.80;99.90;;;;;;4995477;28;20034;-74
2023/07/18 05:30:22;;;;;;;9.48;8.68;;;17.70;99.90;;;;;;5010577;28;20030;-77
2023/07/18 05:32:50;;;;;;;12.45;10.13;;;17.60;99.90;;;;;;5011738;28;20499;-76
2023/07/18 05:35:16;;;;;;;9.70;8.52;;;17.50;99.90;;;;;;5010918;28;20471;-77
2023/07/18 05:37:43;;;;;;;9.10;8.18;;;17.60;99.90;;;;;;5012497;28;20037;-77
2023/07/18 05:40:10;;;;;;;12.52;8.05;;;17.50;99.90;;;;;;5011408;28;20032;-76
2023/07/18 05:42:39;;;;;;;10.00;9.00;;;17.60;99.90;;;;;;4991770;28;20527;-77
2023/07/18 05:45:07;;;;;;;12.88;10.70;;;17.80;99.90;;;;;;4992347;28;20045;-77
2023/07/18 05:47:34;;;;;;;13.60;11.50;;;17.90;99.90;;;;;;5012195;28;20383;-74
2023/07/18 05:50:01;;;;;;;10.68;9.70;;;18.10;99.90;;;;;;5011218;28;20057;-73
2023/07/18 05:52:27;;;;;;;9.90;9.00;;;18.10;99.90;;;;;;5012189;28;20395;-74
2023/07/18 05:54:53;;;;;;;10.65;9.48;;;18.20;99.90;;;;;;5012519;28;20038;-74
2023/07/18 05:57:19;;;;;;;11.57;8.60;;;18.20;99.90;;;;;;5012173;28;20037;-74
2023/07/18 05:59:45;;;;;;;11.13;10.15;;;18.20;99.90;;;;;;5012116;28;20034;-73
2023/07/18 06:02:12;;;;;;;13.23;12.18;;;18.30;99.90;;;;;;5011416;28;20049;-73
2023/07/18 06:04:38;;;;;;;13.40;12.40;;;18.40;99.90;;;;;;5012379;28;20026;-73
2023/07/18 06:07:04;;;;;;;16.58;15.25;;;18.60;99.90;;;;;;5011923;28;20033;-74
2023/07/18 06:09:30;;;;;;;17.08;15.45;;;18.70;99.90;;;;;;5012248;28;20399;-74
2023/07/18 06:11:56;;;;;;;15.18;14.02;;;18.80;99.90;;;;;;5012000;28;20628;-74
2023/07/18 06:14:22;;;;;;;15.63;14.30;;;18.70;99.90;;;;;;5011973;28;20037;-74
2023/07/18 06:16:49;;;;;;;13.55;12.25;;;18.70;99.90;;;;;;4993704;28;20030;-73
2023/07/18 06:19:15;;;;;;;13.23;12.02;;;18.70;99.90;;;;;;5010817;28;20057;-74
2023/07/18 06:21:41;;;;;;;15.88;14.77;;;18.80;99.90;;;;;;5011762;28;20399;-74
2023/07/18 06:24:07;;;;;;;14.27;13.10;;;18.80;99.90;;;;;;5014097;28;20041;-73
2023/07/18 06:26:34;;;;;;;16.73;14.23;;;18.90;99.90;;;;;;5014581;28;20481;-74
2023/07/18 06:29:00;;;;;;;15.50;14.40;;;19.00;99.90;;;;;;5015696;28;20383;-76
2023/07/18 06:31:26;;;;;;;15.35;13.80;;;19.10;99.90;;;;;;5015266;28;20041;-77
2023/07/18 06:33:52;;;;;;;13.77;12.80;;;19.40;99.90;;;;;;5016008;28;20025;-73
2023/07/18 06:36:18;;;;;;;12.00;10.77;;;19.60;99.90;;;;;;5015290;28;20036;-74
2023/07/18 06:38:44;;;;;;;11.60;10.48;;;19.90;99.90;;;;;;5015932;28;20387;-73
2023/07/18 06:41:12;;;;;;;11.18;10.00;;;19.90;99.90;;;;;;5014220;28;20038;-73
2023/07/18 06:43:39;;;;;;;10.35;9.35;;;20.00;99.90;;;;;;5015469;28;20045;-74
2023/07/18 06:46:05;;;;;;;9.63;8.73;;;20.10;99.90;;;;;;5015021;28;20491;-74
2023/07/18 06:48:31;;;;;;;9.15;7.90;;;20.20;99.90;;;;;;5015588;28;20475;-73
2023/07/18 06:50:59;;;;;;;11.68;8.43;;;20.40;99.90;;;;;;5015046;28;20049;-74
2023/07/18 06:53:26;;;;;;;9.45;8.65;;;20.70;99.90;;;;;;5014297;28;20467;-74
2023/07/18 06:55:53;;;;;;;10.55;9.75;;;20.70;99.90;;;;;;5014384;28;20049;-77
2023/07/18 06:58:19;;;;;;;10.02;9.13;;;20.70;99.90;;;;;;5015093;28;20037;-77
2023/07/18 07:00:46;;;;;;;9.60;8.93;;;20.70;99.90;;;;;;5014698;28;20406;-74
2023/07/18 07:03:13;;;;;;;13.20;8.85;;;20.80;99.90;;;;;;5014087;28;20036;-74
2023/07/18 07:05:41;;;;;;;11.40;10.02;;;20.80;99.90;;;;;;4993984;28;20039;-74
2023/07/18 07:08:10;;;;;;;12.75;11.65;;;21.00;99.90;;;;;;4994476;28;20037;-73
2023/07/18 07:10:37;;;;;;;12.43;11.43;;;21.10;99.90;;;;;;4997999;28;20030;-74
2023/07/18 07:13:03;;;;;;;10.65;9.75;;;21.10;99.90;;;;;;5015070;28;20030;-74
2023/07/18 07:15:30;;;;;;;10.65;9.70;;;21.30;99.90;;;;;;5013235;28;20424;-74
2023/07/18 07:17:56;;;;;;;12.57;11.70;;;21.50;99.90;;;;;;5013949;28;20044;-74
2023/07/18 07:20:24;;;;;;;11.35;10.38;;;21.50;99.90;;;;;;5014661;28;20045;-74
2023/07/18 07:22:53;;;;;;;12.98;11.88;;;21.70;99.80;;;;;;5013703;28;20034;-74
2023/07/18 07:25:25;;;;;;;11.85;10.85;;;21.70;99.70;;;;;;5014279;28;20434;-74
2023/07/18 07:27:51;;;;;;;12.30;11.20;;;21.70;99.40;;;;;;5014909;28;20045;-74
2023/07/18 07:30:17;;;;;;;13.10;12.13;;;21.70;99.60;;;;;;5014384;28;20029;-74
2023/07/18 07:32:48;;;;;;;12.65;11.65;;;21.70;99.20;;;;;;5013685;28;20034;-74
2023/07/18 07:35:16;;;;;;;13.43;11.70;;;21.70;99.00;;;;;;5014199;28;20109;-74
2023/07/18 07:37:42;;;;;;;13.88;12.90;;;21.80;99.40;;;;;;5014450;28;20041;-74
2023/07/18 07:40:11;;;;;;;14.35;12.98;;;21.90;99.20;;;;;;4997120;28;20034;-73
2023/07/18 07:42:42;;;;;;;15.32;13.93;;;22.10;98.80;;;;;;5013380;28;20407;-74
2023/07/18 07:45:08;;;;;;;;;;;22.20;98.80;;;;;;5013481;28;20026;-73
2023/07/18 07:47:34;;;;;;;15.32;14.23;;;22.40;98.50;;;;;;5014586;28;19948;-74
2023/07/18 07:50:01;;;;;;;15.35;14.32;;;22.50;98.50;;;;;;5013279;28;20406;-74
2023/07/18 07:52:28;;;;;;;16.13;14.77;;;22.60;98.30;;;;;;5012964;28;20041;-73
2023/07/18 07:54:54;;;;;;;17.90;16.27;;;22.80;98.00;;;;;;5013903;28;20026;-74
2023/07/18 07:57:21;;;;;;;15.50;14.15;;;22.80;98.00;;;;;;5012998;28;20045;-74
2023/07/18 07:59:48;;;;;;;14.95;13.95;;;22.80;97.50;;;;;;5013110;28;20026;-74
2023/07/18 08:02:14;;;;;;;14.40;13.45;;;22.90;97.50;;;;;;4996009;28;20046;-74
2023/07/18 08:04:44;;;;;;;15.93;14.80;;;23.00;97.20;;;;;;5013025;28;20018;-77
2023/07/18 08:07:10;;;;;;;15.02;13.80;;;23.30;98.00;;;;;;5012806;28;20038;-77
2023/07/18 08:09:39;;;;;;;17.80;16.30;;;23.50;96.80;;;;;;5013941;28;20048;-77
2023/07/18 08:12:06;;;;;;;15.68;14.30;;;23.70;96.50;;;;;;5012830;28;20486;-77
2023/07/18 08:14:32;;;;;;;15.77;14.45;;;23.80;96.20;;;;;;5014106;28;20026;-77
2023/07/18 08:16:58;;;;;;;17.75;16.58;;;24.00;96.10;;;;;;5011892;28;20038;-77
2023/07/18 08:19:25;;;;;;;15.93;14.90;;;24.20;95.60;;;;;;4996502;28;20033;-75
2023/07/18 08:21:51;;;;;;;18.13;16.65;;;24.20;95.80;;;;;;5012421;28;20479;-75
2023/07/18 08:24:18;;;;;;;20.92;19.60;;;24.30;95.40;;;;;;5012315;28;20041;-75
2023/07/18 08:26:44;;;;;;;17.77;16.55;;;24.10;95.00;;;;;;5013608;28;20034;-76
2023/07/18 08:29:10;;;;;;;20.35;18.55;;;24.20;95.20;;;;;;5013919;28;20041;-75
2023/07/18 08:31:36;;;;;;;18.23;17.00;;;24.40;94.80;;;;;;5012019;28;20045;-76
2023/07/18 08:34:02;;;;;;;18.67;17.05;;;24.50;94.30;;;;;;5012637;28;20029;-75
2023/07/18 08:36:29;;;;;;;18.88;17.40;;;24.60;94.40;;;;;;5012046;28;20042;-75
2023/07/18 08:38:55;;;;;;;16.67;15.57;;;24.70;94.40;;;;;;5013437;28;20038;-74
2023/07/18 08:41:21;;;;;;;18.30;17.00;;;24.80;94.60;;;;;;5012067;28;20038;-74
2023/07/18 08:43:48;;;;;;;18.33;16.88;;;24.90;94.00;;;;;;5012401;28;20044;-75
2023/07/18 08:46:14;;;;;;;17.10;15.77;;;24.80;94.00;;;;;;5010786;28;20041;-74
2023/07/18 08:48:43;;;;;;;18.48;17.30;;;24.90;94.10;;;;;;5012208;28;20037;-75
2023/07/18 08:51:10;;;;;;;19.05;17.85;;;25.00;93.60;;;;;;5012064;28;20045;-75
2023/07/18 08:53:38;;;;;;;19.52;18.13;;;25.20;93.50;;;;;;5011847;28;20037;-75
2023/07/18 08:56:04;;;;;;;19.33;18.10;;;25.20;93.70;;;;;;5011801;28;20032;-75
2023/07/18 08:58:30;;;;;;;21.08;19.67;;;25.20;93.60;;;;;;5013296;28;20045;-75
2023/07/18 09:00:57;;;;;;;19.75;18.45;;;25.30;93.00;;;;;;5012511;28;20030;-74
2023/07/18 09:03:23;;;;;;;20.73;19.00;;;25.30;93.10;;;;;;5013247;28;20479;-75
2023/07/18 09:05:51;;;;;;;19.50;18.10;;;25.30;93.00;;;;;;5011463;28;20033;-75
2023/07/18 09:08:17;;;;;;;18.83;17.48;;;25.40;93.10;;;;;;5012902;28;20026;-75
2023/07/18 09:10:44;;;;;;;19.55;18.27;;;25.50;92.80;;;;;;5012964;28;20018;-75
2023/07/18 09:13:10;;;;;;;23.50;21.98;;;25.60;92.50;;;;;;5011829;28;20383;-75
2023/07/18 09:15:37;;;;;;;21.85;20.33;;;25.70;92.30;;;;;;5011124;28;20026;-75
2023/07/18 09:18:05;;;;;;;22.20;20.85;;;25.80;92.40;;;;;;4995408;28;20030;-75
2023/07/18 09:20:32;;;;;;;22.75;21.02;;;25.80;92.30;;;;;;5011706;28;20037;-75
2023/07/18 09:22:59;;;;;;;24.02;22.30;;;26.00;91.90;;;;;;5011295;28;20057;-75
2023/07/18 09:25:25;;;;;;;23.50;22.10;;;26.20;91.70;;;;;;5011480;28;20475;-75
2023/07/18 09:27:52;;;;;;;21.45;20.05;;;26.30;91.30;;;;;;5012671;28;20034;-76
2023/07/18 09:30:29;;;;;;;19.83;18.48;;;26.30;91.80;;;;;;5010887;28;20375;-75
2023/07/18 09:32:55;;;;;;;22.65;21.17;;;26.30;92.00;;;;;;5011616;28;20026;-75
2023/07/18 09:35:21;;;;;;;23.40;21.73;;;26.50;91.50;;;;;;5011223;28;20383;-75
2023/07/18 09:37:48;;;;;;;22.45;21.02;;;26.60;91.60;;;;;;5011122;28;20050;-75
2023/07/18 09:40:16;;;;;;;25.98;24.05;;;26.80;91.30;;;;;;5011311;28;20026;-75
2023/07/18 09:42:46;;;;;;;27.95;26.33;;;26.90;91.30;;;;;;5011485;28;20054;-75
2023/07/18 09:45:13;;;;;;;30.33;28.52;;;27.10;90.50;;;;;;5010699;28;20375;-75
2023/07/18 09:47:43;;;;;;;28.92;27.17;;;27.20;90.60;;;;;;5011567;28;20033;-76
2023/07/18 09:50:10;;;;;;;34.35;32.25;;;27.40;90.80;;;;;;5010885;28;20042;-75
2023/07/18 09:52:47;;;;;;;34.88;32.65;;;27.30;89.70;;;;;;4975641;28;20054;-75
2023/07/18 09:55:14;;;;;;;31.80;29.80;;;27.30;89.90;;;;;;4992069;28;20029;-75
2023/07/18 09:57:41;;;;;;;34.47;32.05;;;27.40;89.80;;;;;;5014482;28;20498;-75
2023/07/18 10:00:11;;;;;;;36.55;34.45;;;27.60;89.80;;;;;;5018746;28;20026;-74
2023/07/18 10:02:38;;;;;;;;;;;27.70;88.40;;;;;;4998522;28;20045;-75
2023/07/18 10:05:04;;;;;;;38.97;36.63;;;27.70;89.30;;;;;;5017073;28;19905;-75
2023/07/18 10:07:32;;;;;;;33.58;31.63;;;27.70;89.00;;;;;;5001140;28;20034;-75
2023/07/18 10:10:00;;;;;;;43.63;41.03;;;27.80;89.30;;;;;;5019162;28;20487;-75
2023/07/18 10:12:26;;;;;;;44.00;41.63;;;27.90;87.50;;;;;;5001084;28;20037;-75
2023/07/18 10:14:57;;;;;;;37.53;35.35;;;27.90;87.10;;;;;;5017696;28;20038;-75
2023/07/18 10:17:32;;;;;;;;;;;28.00;88.40;;;;;;5017449;28;20368;-75
2023/07/18 10:19:58;;;;;;;48.08;45.53;;;28.20;87.50;;;;;;5018685;28;19909;-75
2023/07/18 10:22:27;;;;;;;42.63;40.28;;;28.40;86.20;;;;;;5018411;28;20470;-75
2023/07/18 10:25:05;;;;;;;49.28;46.38;;;28.30;87.00;;;;;;5016769;28;20037;-75
2023/07/18 10:27:38;;;;;;;43.47;41.10;;;28.30;85.90;;;;;;5017214;28;20037;-75
2023/07/18 10:30:11;;;;;;;43.05;40.45;;;28.30;87.10;;;;;;5018365;28;20046;-76
2023/07/18 10:32:38;;;;;;;37.58;35.45;;;28.20;86.70;;;;;;5003014;28;20410;-76
2023/07/18 10:35:08;;;;;;;47.33;44.75;;;28.10;87.20;;;;;;5017174;28;20033;-75
2023/07/18 10:37:36;;;;;;;47.10;44.05;;;28.30;85.60;;;;;;5018434;28;20022;-75
2023/07/18 10:40:05;;;;;;;45.55;43.15;;;28.20;85.80;;;;;;5018657;28;20070;-75
2023/07/18 10:42:33;;;;;;;44.75;42.33;;;28.10;85.10;;;;;;5018261;28;20511;-75
2023/07/18 10:45:01;;;;;;;47.75;45.30;;;28.30;87.60;;;;;;5017409;28;20022;-75
2023/07/18 10:47:27;;;;;;;49.35;46.40;;;28.40;84.90;;;;;;5000083;28;20038;-74
2023/07/18 10:49:54;;;;;;;54.58;51.55;;;28.40;83.90;;;;;;5016790;28;20069;-75
2023/07/18 10:52:20;;;;;;;52.20;49.33;;;28.40;84.00;;;;;;5017037;28;20034;-75
2023/07/18 10:54:56;;;;;;;53.95;51.00;;;28.50;84.60;;;;;;5017380;28;20476;-76
2023/07/18 10:57:30;;;;;;;45.80;43.40;;;28.60;84.40;;;;;;5017132;28;20034;-75
2023/07/18 10:59:58;;;;;;;63.40;60.05;;;28.70;85.50;;;;;;5017341;28;20029;-75
2023/07/18 11:02:26;;;;;;;60.40;57.13;;;29.00;84.50;;;;;;5016423;28;20042;-76
2023/07/18 11:04:53;;;;;;;57.88;54.92;;;29.20;85.60;;;;;;5018127;28;20028;-75
2023/07/18 11:07:35;;;;;;;53.20;50.05;;;29.30;85.20;;;;;;5018103;28;20034;-76
2023/07/18 11:10:01;;;;;;;63.60;60.25;;;29.50;85.60;;;;;;5013671;28;20387;-75
2023/07/18 11:12:27;;;;;;;59.42;56.35;;;29.70;84.30;;;;;;5015045;28;20056;-75
2023/07/18 11:14:54;;;;;;;75.38;71.57;;;29.80;82.80;;;;;;5014719;28;20395;-75
2023/07/18 11:17:20;;;;;;;71.63;67.95;;;29.80;81.40;;;;;;5014332;28;20041;-75
2023/07/18 11:19:47;;;;;;;72.68;69.00;;;29.90;82.30;;;;;;4997936;28;20046;-75
2023/07/18 11:22:14;;;;;;;77.10;73.15;;;30.00;81.90;;;;;;5013715;28;20041;-75
2023/07/18 11:24:41;;;;;;;77.70;73.90;;;30.20;82.40;;;;;;5013886;28;20018;-75
2023/07/18 11:27:22;;;;;;;83.13;78.93;;;30.30;80.50;;;;;;5013661;28;20034;-75
2023/07/18 11:29:54;;;;;;;;;;;30.50;82.00;;;;;;5015261;28;20487;-75
2023/07/18 11:32:40;;;;;;;82.32;78.03;;;30.70;82.60;;;;;;5012618;28;19925;-75
2023/07/18 11:35:10;;;;;;;86.53;82.13;;;30.80;80.50;;;;;;5013643;28;20026;-75
2023/07/18 11:37:37;;;;;;;;;;;30.60;79.80;;;;;;5011217;28;20053;-75
2023/07/18 11:40:03;;;;;;;84.68;80.45;;;30.70;79.80;;;;;;5014766;28;19905;-75
2023/07/18 11:42:49;;;;;;;88.40;84.00;;;30.70;79.70;;;;;;5013137;28;20061;-75
2023/07/18 11:45:17;;;;;;;72.05;68.32;;;30.70;79.50;;;;;;5012781;28;20026;-76
2023/07/18 11:47:46;;;;;;;82.60;78.32;;;30.80;80.80;;;;;;5013167;28;20026;-76
2023/07/18 11:50:13;;;;;;;89.30;84.78;;;31.00;80.40;;;;;;4994052;28;20039;-75
2023/07/18 11:52:46;;;;;;;88.78;84.38;;;31.10;81.00;;;;;;5014627;28;20038;-76
2023/07/18 11:55:13;;;;;;;92.93;88.40;;;31.20;79.40;;;;;;5013006;28;20026;-75
2023/07/18 11:57:39;;;;;;;86.00;81.65;;;31.20;79.90;;;;;;5014471;28;20352;-75
2023/07/18 12:00:08;;;;;;;82.97;78.80;;;31.20;79.70;;;;;;5012846;28;20029;-76
2023/07/18 12:02:34;;;;;;;78.97;74.97;;;31.20;77.40;;;;;;5012876;28;20467;-76
2023/07/18 12:05:00;;;;;;;88.95;84.35;;;31.20;78.60;;;;;;5014347;28;20041;-75
2023/07/18 12:07:26;;;;;;;89.05;84.75;;;31.20;79.10;;;;;;5014496;28;20038;-75
2023/07/18 12:09:53;;;;;;;90.00;85.55;;;31.30;77.90;;;;;;5014265;28;20037;-75
2023/07/18 12:12:19;;;;;;;85.28;80.97;;;31.40;77.70;;;;;;5012871;28;20029;-75
2023/07/18 12:14:45;;;;;;;66.55;63.17;;;31.50;77.90;;;;;;5014404;28;20046;-75
2023/07/18 12:17:11;;;;;;;77.57;73.47;;;31.60;77.40;;;;;;5013210;28;20030;-75
2023/07/18 12:19:37;;;;;;;77.55;73.68;;;31.60;78.30;;;;;;5013638;28;20034;-75
2023/07/18 12:22:03;;;;;;;78.07;74.18;;;31.70;77.20;;;;;;4995800;28;20041;-76
2023/07/18 12:24:30;;;;;;;82.78;78.68;;;31.80;76.40;;;;;;5012807;28;20041;-75
2023/07/18 12:26:56;;;;;;;78.78;74.80;;;31.90;75.10;;;;;;5012440;28;20478;-75
2023/07/18 12:29:22;;;;;;;87.30;83.07;;;31.70;75.80;;;;;;5013829;28;20097;-75
2023/07/18 12:31:51;;;;;;;73.70;70.00;;;31.80;77.30;;;;;;5012880;28;20041;-75